Mohler, Washington
Current Conditions -  °F | °C
As of 3:18 AM on Tuesday 21 Oct 2014 (Local Time) from KSKA Reporting Station
Overcast Overcast  
Wind Chill: 46°   Ceiling: 1400
Heat Index: 48°   Visibility: 10mi
Dew Point: 45°   Wind: 6mph
Humidity: 87%   Direction: 180°S
Pressure: 29.84"   Gusts: NA
Location:  47.4°N, 118.33°W
Report Text: KSKA 211018Z AUTO 18005KT 10SM OVC014 09/07 A2984 RMK AO2
Loading
Personal Weather Stations






























Interactive Weather Map
Tropical Storm Tracking
New forecast layout! Learn more

10-Day Weather Forecast

Advertisements
Track Severe Weather on mobile